Terminal Aerodrome Forecast
Issued by NWS

Home | Current Version | Previous Version | Text Only | Print | Product List | Glossary On
Versions: 1 2 3 4 5 6 7 8 9 10 11 12
000
FTUS44 KTSA 050500
TAFMLC
TAF
KMLC 050520Z 0506/0606 14006KT P6SM SCT250 WS020/17035KT
     FM051500 17011G20KT P6SM SCT100 BKN250
     FM051900 16011G20KT P6SM SCT060
     FM060000 15010KT P6SM SCT050 BKN100 PROB30 0602/0606 5SM -TSRA
      BR BKN050CB=

USA.gov is the U.S. government's official web portal to all federal, state and local government web resources and services.